createdAt,value
2023-03-22T00:00:28.031Z,100384.00
2023-03-22T00:03:31.163Z,100380.94
2023-03-22T00:06:33.735Z,100376.00
2023-03-22T00:09:36.703Z,100379.66
2023-03-22T00:12:39.424Z,100376.37
2023-03-22T00:15:45.533Z,100374.03
2023-03-22T00:18:48.463Z,100377.59
2023-03-22T00:21:51.567Z,100374.31
2023-03-22T00:24:54.133Z,100375.25
2023-03-22T00:27:56.944Z,100378.63
2023-03-22T00:31:01.273Z,100376.94
2023-03-22T00:34:04.183Z,100377.59
2023-03-22T00:37:08.057Z,100370.72
2023-03-22T00:40:13.574Z,100377.75
2023-03-22T00:43:16.839Z,100375.06
2023-03-22T00:46:21.836Z,100374.41
2023-03-22T00:49:25.625Z,100370.41
2023-03-22T00:52:29.701Z,100370.44
2023-03-22T00:55:33.366Z,100369.91
2023-03-22T00:58:36.182Z,100372.59
2023-03-22T01:01:40.033Z,100368.38
2023-03-22T01:04:46.408Z,100364.19
2023-03-22T01:07:52.149Z,100369.50
2023-03-22T01:10:55.046Z,100364.69
2023-03-22T01:13:59.602Z,100363.88
2023-03-22T01:17:02.924Z,100361.56
2023-03-22T01:20:06.971Z,100357.34
2023-03-22T01:23:10.073Z,100358.16
2023-03-22T01:26:12.793Z,100342.88
2023-03-22T01:29:16.061Z,100341.38
2023-03-22T01:32:18.621Z,100338.22
2023-03-22T01:35:21.814Z,100335.78
2023-03-22T01:38:24.383Z,100348.72
2023-03-22T01:41:28.151Z,100345.13
2023-03-22T01:44:33.579Z,100345.13
2023-03-22T01:47:36.836Z,100346.22
2023-03-22T01:50:42.636Z,100344.56
2023-03-22T01:53:51.864Z,100349.31
2023-03-22T01:56:54.765Z,100344.44
2023-03-22T02:00:00.705Z,100350.59
2023-03-22T02:03:06.259Z,100349.00
2023-03-22T02:06:09.599Z,100347.34
2023-03-22T02:09:17.392Z,100350.88
2023-03-22T02:12:23.158Z,100355.87
2023-03-22T02:15:36.176Z,100358.59
2023-03-22T02:18:49.349Z,100363.16
2023-03-22T02:22:10.341Z,100364.09
2023-03-22T02:25:19.240Z,100353.00
2023-03-22T02:28:22.017Z,100364.03
2023-03-22T02:32:03.944Z,100360.00
2023-03-22T02:35:38.925Z,100361.91
2023-03-22T02:38:58.458Z,100356.78
2023-03-22T02:42:02.807Z,100375.72
2023-03-22T02:45:18.220Z,100366.91
2023-03-22T02:48:30.832Z,100367.62
2023-03-22T02:51:44.741Z,100374.38
2023-03-22T02:55:03.827Z,100371.66
2023-03-22T02:58:18.968Z,100378.94
2023-03-22T03:01:29.122Z,100371.97
2023-03-22T03:04:41.138Z,100374.66
2023-03-22T03:07:50.457Z,100377.25
2023-03-22T03:10:54.901Z,100374.66
2023-03-22T03:13:57.791Z,100374.53
2023-03-22T03:17:19.263Z,100375.22
2023-03-22T03:20:30.450Z,100380.94
2023-03-22T03:23:46.709Z,100372.06
2023-03-22T03:27:08.588Z,100377.50
2023-03-22T03:30:16.953Z,100378.53
2023-03-22T03:33:25.597Z,100378.63
2023-03-22T03:36:30.863Z,100379.56
2023-03-22T03:39:39.865Z,100388.94
2023-03-22T03:42:50.322Z,100393.06
2023-03-22T03:45:54.337Z,100379.53
2023-03-22T03:48:58.289Z,100372.84
2023-03-22T03:52:01.461Z,100389.22
2023-03-22T03:55:05.092Z,100390.25
2023-03-22T03:58:09.564Z,100381.88
2023-03-22T04:01:12.626Z,100376.88
2023-03-22T04:04:26.668Z,100379.34
2023-03-22T04:07:29.689Z,100377.59
2023-03-22T04:10:32.721Z,100374.25
2023-03-22T04:13:35.690Z,100374.25
2023-03-22T04:16:38.924Z,100366.59
2023-03-22T04:19:47.004Z,100368.94
2023-03-22T04:22:49.997Z,100374.22
2023-03-22T04:25:54.658Z,100372.56
2023-03-22T04:28:58.663Z,100390.47
2023-03-22T04:32:02.742Z,100399.34
2023-03-22T04:35:06.435Z,100391.75
2023-03-22T04:38:09.986Z,100396.94
2023-03-22T04:41:13.738Z,100384.06
2023-03-22T04:44:17.054Z,100401.38
2023-03-22T04:47:22.869Z,100398.88
2023-03-22T04:50:28.245Z,100390.38
2023-03-22T04:53:33.111Z,100392.94
2023-03-22T04:56:36.118Z,100395.53
2023-03-22T04:59:39.036Z,100395.34
2023-03-22T05:02:42.181Z,100396.78
2023-03-22T05:05:54.398Z,100395.94
2023-03-22T05:08:57.673Z,100403.63
2023-03-22T05:12:01.012Z,100424.09
2023-03-22T05:15:06.136Z,100418.91
2023-03-22T05:18:09.583Z,100410.13
2023-03-22T05:21:16.715Z,100415.97
2023-03-22T05:24:20.670Z,100424.44
2023-03-22T05:27:31.476Z,100418.19
2023-03-22T05:30:35.662Z,100413.59
2023-03-22T05:33:39.288Z,100421.84
2023-03-22T05:36:42.420Z,100418.81
2023-03-22T05:39:45.467Z,100427.81
2023-03-22T05:42:48.585Z,100434.38
2023-03-22T05:45:51.775Z,100426.34
2023-03-22T05:48:56.184Z,100425.97
2023-03-22T05:51:59.393Z,100436.53
2023-03-22T05:55:03.778Z,100434.47
2023-03-22T05:58:07.717Z,100441.53
2023-03-22T06:01:12.793Z,100438.72
2023-03-22T06:04:18.800Z,100444.66
2023-03-22T06:07:22.141Z,100454.06
2023-03-22T06:10:29.338Z,100451.97
2023-03-22T06:13:33.221Z,100451.63
2023-03-22T06:16:36.283Z,100455.91
2023-03-22T06:19:39.427Z,100444.22
2023-03-22T06:22:42.886Z,100448.94
2023-03-22T06:25:46.062Z,100465.84
2023-03-22T06:28:49.001Z,100464.91
2023-03-22T06:31:51.965Z,100467.25
2023-03-22T06:34:55.728Z,100475.69
2023-03-22T06:37:59.457Z,100461.53
2023-03-22T06:41:03.361Z,100474.03
2023-03-22T06:44:06.057Z,100468.06
2023-03-22T06:47:11.705Z,100469.84
2023-03-22T06:50:15.814Z,100478.50
2023-03-22T06:53:23.671Z,100476.31
2023-03-22T06:56:27.115Z,100478.00
2023-03-22T06:59:30.310Z,100477.59
2023-03-22T07:02:32.939Z,100472.25
2023-03-22T07:05:40.014Z,100470.50
2023-03-22T07:08:43.179Z,100478.69
2023-03-22T07:11:47.532Z,100482.38
2023-03-22T07:14:50.928Z,100480.63
2023-03-22T07:17:54.462Z,100483.47
2023-03-22T07:20:57.469Z,100494.00
2023-03-22T07:24:00.904Z,100495.38
2023-03-22T07:27:03.999Z,100497.97
2023-03-22T07:30:09.790Z,100497.59
2023-03-22T07:33:12.807Z,100490.09
2023-03-22T07:36:16.852Z,100482.91
2023-03-22T07:39:19.410Z,100488.97
2023-03-22T07:42:23.750Z,100489.50
2023-03-22T07:45:30.010Z,100484.72
2023-03-22T07:48:36.458Z,100494.37
2023-03-22T07:51:40.895Z,100486.97
2023-03-22T07:54:44.453Z,100492.69
2023-03-22T07:57:47.091Z,100483.22
2023-03-22T08:00:50.416Z,100482.13
2023-03-22T08:03:57.111Z,100475.72
2023-03-22T08:07:01.202Z,100472.19
2023-03-22T08:10:04.896Z,100464.78
2023-03-22T08:13:09.443Z,100476.03
2023-03-22T08:16:12.660Z,100477.41
2023-03-22T08:19:15.490Z,100474.13
2023-03-22T08:22:19.191Z,100475.44
2023-03-22T08:25:25.408Z,100473.38
2023-03-22T08:28:28.669Z,100475.16
2023-03-22T08:31:31.695Z,100480.28
2023-03-22T08:34:39.227Z,100485.69
2023-03-22T08:37:41.936Z,100488.66
2023-03-22T08:40:48.455Z,100491.19
2023-03-22T08:43:54.125Z,100488.75
2023-03-22T08:46:57.278Z,100487.66
2023-03-22T08:49:59.947Z,100481.50
2023-03-22T08:53:03.761Z,100474.00
2023-03-22T08:56:07.899Z,100479.44
2023-03-22T08:59:11.758Z,100473.91
2023-03-22T09:02:14.833Z,100479.66
2023-03-22T09:05:17.859Z,100484.34
2023-03-22T09:08:21.208Z,100494.06
2023-03-22T09:11:24.701Z,100487.87
2023-03-22T09:14:27.484Z,100488.00
2023-03-22T09:17:30.681Z,100489.59
2023-03-22T09:20:34.652Z,100487.72
2023-03-22T09:23:39.308Z,100489.00
2023-03-22T09:26:42.464Z,100489.31
2023-03-22T09:29:45.554Z,100488.13
2023-03-22T09:32:49.317Z,100483.84
2023-03-22T09:35:54.676Z,100475.16
2023-03-22T09:38:57.688Z,100475.03
2023-03-22T09:42:04.230Z,100474.72
2023-03-22T09:45:13.796Z,100464.97
2023-03-22T09:48:28.915Z,100466.81
2023-03-22T09:51:41.885Z,100464.56
2023-03-22T09:54:47.259Z,100459.88
2023-03-22T09:57:58.829Z,100457.81
2023-03-22T10:01:24.856Z,100457.13
2023-03-22T10:04:55.406Z,100463.13
2023-03-22T10:08:10.912Z,100456.50
2023-03-22T10:11:40.150Z,100460.03
2023-03-22T10:14:48.088Z,100457.56
2023-03-22T10:17:55.325Z,100454.28
2023-03-22T10:21:04.436Z,100451.69
2023-03-22T10:24:17.291Z,100454.13
2023-03-22T10:27:21.686Z,100453.91
2023-03-22T10:30:27.443Z,100447.59
2023-03-22T10:33:50.270Z,100450.09
2023-03-22T10:36:53.548Z,100453.25
2023-03-22T10:39:59.912Z,100449.53
2023-03-22T10:43:11.786Z,100447.84
2023-03-22T10:46:18.996Z,100452.78
2023-03-22T10:49:29.550Z,100446.00
2023-03-22T10:52:50.584Z,100444.06
2023-03-22T10:55:53.460Z,100445.66
2023-03-22T10:58:57.383Z,100443.87
2023-03-22T11:02:01.761Z,100443.09
2023-03-22T11:05:07.271Z,100437.81
2023-03-22T11:08:14.535Z,100431.81
2023-03-22T11:11:27.816Z,100435.62
2023-03-22T11:14:35.388Z,100421.56
2023-03-22T11:17:39.167Z,100423.34
2023-03-22T11:20:52.534Z,100416.25
2023-03-22T11:24:00.538Z,100415.97
2023-03-22T11:27:06.312Z,100416.34
2023-03-22T11:30:20.293Z,100400.06
2023-03-22T11:33:25.964Z,100402.00
2023-03-22T11:36:29.678Z,100408.25
2023-03-22T11:39:32.732Z,100403.28
2023-03-22T11:42:35.908Z,100396.19
2023-03-22T11:45:44.059Z,100393.13
2023-03-22T11:48:50.503Z,100398.47
2023-03-22T11:51:55.603Z,100397.56
2023-03-22T11:55:00.199Z,100383.66
2023-03-22T11:58:04.781Z,100388.81
2023-03-22T12:01:16.097Z,100387.41
2023-03-22T12:04:25.468Z,100384.84
2023-03-22T12:07:31.243Z,100393.56
2023-03-22T12:10:41.272Z,100397.19
2023-03-22T12:13:52.888Z,100389.53
2023-03-22T12:17:06.371Z,100386.78
2023-03-22T12:20:31.038Z,100385.69
2023-03-22T12:23:35.324Z,100388.47
2023-03-22T12:26:38.995Z,100382.84
2023-03-22T12:29:58.638Z,100378.28
2023-03-22T12:33:18.518Z,100374.81
2023-03-22T12:36:27.566Z,100378.06
2023-03-22T12:39:35.312Z,100379.00
2023-03-22T12:42:51.574Z,100378.53
2023-03-22T12:45:59.114Z,100378.19
2023-03-22T12:49:15.512Z,100372.34
2023-03-22T12:52:26.461Z,100360.72
2023-03-22T12:55:36.737Z,100371.81
2023-03-22T12:58:39.539Z,100366.19
2023-03-22T13:01:54.808Z,100366.37
2023-03-22T13:05:04.929Z,100362.50
2023-03-22T13:08:08.152Z,100355.31
2023-03-22T13:11:23.284Z,100344.50
2023-03-22T13:14:49.014Z,100337.50
2023-03-22T13:18:02.659Z,100334.91
2023-03-22T13:21:21.287Z,100335.75
2023-03-22T13:24:24.008Z,100334.38
2023-03-22T13:27:39.974Z,100330.44
2023-03-22T13:30:50.012Z,100321.19
2023-03-22T13:33:53.675Z,100331.28
2023-03-22T13:36:57.406Z,100326.16
2023-03-22T13:40:02.313Z,100317.38
2023-03-22T13:43:20.013Z,100318.22
2023-03-22T13:46:23.101Z,100316.84
2023-03-22T13:49:58.671Z,100315.19
2023-03-22T13:53:05.114Z,100309.34
2023-03-22T13:56:12.601Z,100302.72
2023-03-22T13:59:20.379Z,100294.16
2023-03-22T14:02:35.954Z,100303.09
2023-03-22T14:05:39.957Z,100302.00
2023-03-22T14:08:46.320Z,100294.91
2023-03-22T14:11:56.982Z,100295.50
2023-03-22T14:15:03.632Z,100291.19
2023-03-22T14:18:23.951Z,100292.31
2023-03-22T14:21:35.003Z,100295.78
